sensor_id;sensor_type;location;lat;lon;timestamp;pressure;altitude;pressure_sealevel;temperature;humidity
63399;BME280;49533;-34.520;150.798;2024-03-25T00:01:19;100791.06;;;24.86;42.60
63399;BME280;49533;-34.520;150.798;2024-03-25T00:03:46;100749.38;;;24.54;42.00
63399;BME280;49533;-34.520;150.798;2024-03-25T00:06:13;100804.13;;;25.04;41.48
63399;BME280;49533;-34.520;150.798;2024-03-25T00:08:40;100697.41;;;24.37;39.13
63399;BME280;49533;-34.520;150.798;2024-03-25T00:11:08;100804.94;;;25.04;36.29
63399;BME280;49533;-34.520;150.798;2024-03-25T00:13:35;100800.97;;;24.98;36.75
63399;BME280;49533;-34.520;150.798;2024-03-25T00:16:03;100620.06;;;23.92;34.83
63399;BME280;49533;-34.520;150.798;2024-03-25T00:18:31;100769.63;;;24.90;35.70
63399;BME280;49533;-34.520;150.798;2024-03-25T00:20:58;100806.09;;;25.10;35.37
63399;BME280;49533;-34.520;150.798;2024-03-25T00:23:26;100771.19;;;24.91;35.98
63399;BME280;49533;-34.520;150.798;2024-03-25T00:25:53;100787.81;;;25.13;36.27
63399;BME280;49533;-34.520;150.798;2024-03-25T00:28:20;100790.22;;;25.14;37.14
63399;BME280;49533;-34.520;150.798;2024-03-25T00:30:47;100723.97;;;24.77;37.47
63399;BME280;49533;-34.520;150.798;2024-03-25T00:33:14;100755.69;;;25.01;38.21
63399;BME280;49533;-34.520;150.798;2024-03-25T00:35:43;100787.06;;;25.20;37.78
63399;BME280;49533;-34.520;150.798;2024-03-25T00:38:12;100767.56;;;25.23;37.96
63399;BME280;49533;-34.520;150.798;2024-03-25T00:40:39;100783.47;;;25.26;38.21
63399;BME280;49533;-34.520;150.798;2024-03-25T00:43:06;100779.09;;;25.29;38.25
63399;BME280;49533;-34.520;150.798;2024-03-25T00:45:33;100759.22;;;25.30;36.98
63399;BME280;49533;-34.520;150.798;2024-03-25T00:48:01;100679.50;;;24.84;37.42
63399;BME280;49533;-34.520;150.798;2024-03-25T00:50:28;100724.69;;;25.13;37.21
63399;BME280;49533;-34.520;150.798;2024-03-25T00:52:55;100769.94;;;25.39;37.70
63399;BME280;49533;-34.520;150.798;2024-03-25T00:55:23;100765.94;;;25.40;37.96
63399;BME280;49533;-34.520;150.798;2024-03-25T00:57:51;100755.59;;;25.41;36.84
63399;BME280;49533;-34.520;150.798;2024-03-25T01:00:19;100677.09;;;24.93;35.62
63399;BME280;49533;-34.520;150.798;2024-03-25T01:02:46;100750.03;;;25.44;36.81
63399;BME280;49533;-34.520;150.798;2024-03-25T01:05:13;100751.63;;;25.45;36.81
63399;BME280;49533;-34.520;150.798;2024-03-25T01:07:40;100737.25;;;25.54;34.11
63399;BME280;49533;-34.520;150.798;2024-03-25T01:10:07;100683.72;;;25.39;34.05
63399;BME280;49533;-34.520;150.798;2024-03-25T01:12:35;100670.59;;;25.40;34.06
63399;BME280;49533;-34.520;150.798;2024-03-25T01:15:02;100535.09;;;24.59;33.81
63399;BME280;49533;-34.520;150.798;2024-03-25T01:17:29;100733.88;;;25.98;32.97
63399;BME280;49533;-34.520;150.798;2024-03-25T01:19:57;100714.00;;;25.96;32.61
63399;BME280;49533;-34.520;150.798;2024-03-25T01:22:24;100710.75;;;26.09;32.69
63399;BME280;49533;-34.520;150.798;2024-03-25T01:24:51;100665.91;;;25.96;32.77
63399;BME280;49533;-34.520;150.798;2024-03-25T01:27:19;100644.47;;;25.82;32.80
63399;BME280;49533;-34.520;150.798;2024-03-25T01:29:46;100695.50;;;26.24;33.42
63399;BME280;49533;-34.520;150.798;2024-03-25T01:32:13;100522.09;;;25.15;32.29
63399;BME280;49533;-34.520;150.798;2024-03-25T01:34:40;100706.84;;;26.48;31.52
63399;BME280;49533;-34.520;150.798;2024-03-25T01:37:07;100708.81;;;26.54;31.88
63399;BME280;49533;-34.520;150.798;2024-03-25T01:39:34;100683.00;;;26.43;32.00
63399;BME280;49533;-34.520;150.798;2024-03-25T01:42:03;100692.84;;;26.58;32.22
63399;BME280;49533;-34.520;150.798;2024-03-25T01:44:30;100626.28;;;26.22;31.71
63399;BME280;49533;-34.520;150.798;2024-03-25T01:46:58;100634.97;;;26.32;32.00
63399;BME280;49533;-34.520;150.798;2024-03-25T01:49:25;100693.47;;;26.77;32.93
63399;BME280;49533;-34.520;150.798;2024-03-25T01:51:52;100645.94;;;26.50;32.07
63399;BME280;49533;-34.520;150.798;2024-03-25T01:54:19;100695.75;;;26.85;32.23
63399;BME280;49533;-34.520;150.798;2024-03-25T01:56:47;100683.75;;;26.92;32.61
63399;BME280;49533;-34.520;150.798;2024-03-25T01:59:16;100681.69;;;26.96;32.13
63399;BME280;49533;-34.520;150.798;2024-03-25T02:01:46;100660.75;;;26.84;31.75
63399;BME280;49533;-34.520;150.798;2024-03-25T02:04:14;100673.66;;;27.02;32.13
63399;BME280;49533;-34.520;150.798;2024-03-25T02:06:42;100626.59;;;26.73;31.38
63399;BME280;49533;-34.520;150.798;2024-03-25T02:09:10;100675.97;;;27.10;31.20
63399;BME280;49533;-34.520;150.798;2024-03-25T02:11:39;100654.13;;;27.02;31.26
63399;BME280;49533;-34.520;150.798;2024-03-25T02:14:07;100607.53;;;26.72;31.15
63399;BME280;49533;-34.520;150.798;2024-03-25T02:16:35;100668.28;;;27.22;31.37
63399;BME280;49533;-34.520;150.798;2024-03-25T02:19:02;100630.97;;;27.08;31.63
63399;BME280;49533;-34.520;150.798;2024-03-25T02:21:30;100653.84;;;27.30;31.12
63399;BME280;49533;-34.520;150.798;2024-03-25T02:23:59;100609.53;;;27.02;31.13
63399;BME280;49533;-34.520;150.798;2024-03-25T02:26:28;100596.44;;;26.99;31.24
63399;BME280;49533;-34.520;150.798;2024-03-25T02:28:56;100623.28;;;27.16;32.09
63399;BME280;49533;-34.520;150.798;2024-03-25T02:31:23;100615.06;;;27.05;32.23
63399;BME280;49533;-34.520;150.798;2024-03-25T02:33:50;100595.72;;;26.91;32.77
63399;BME280;49533;-34.520;150.798;2024-03-25T02:36:17;100635.66;;;27.15;33.11
63399;BME280;49533;-34.520;150.798;2024-03-25T02:38:44;100650.03;;;27.14;33.22
63399;BME280;49533;-34.520;150.798;2024-03-25T02:41:11;100613.44;;;27.08;33.68
63399;BME280;49533;-34.520;150.798;2024-03-25T02:43:38;100600.06;;;26.96;33.96
63399;BME280;49533;-34.520;150.798;2024-03-25T02:46:06;100589.78;;;26.89;34.27
63399;BME280;49533;-34.520;150.798;2024-03-25T02:48:33;100607.19;;;26.97;34.58
63399;BME280;49533;-34.520;150.798;2024-03-25T02:51:00;100575.56;;;26.80;34.78
63399;BME280;49533;-34.520;150.798;2024-03-25T02:53:27;100620.66;;;27.05;34.77
63399;BME280;49533;-34.520;150.798;2024-03-25T02:55:54;100581.09;;;26.83;34.87
63399;BME280;49533;-34.520;150.798;2024-03-25T02:58:21;100577.19;;;26.77;35.24
63399;BME280;49533;-34.520;150.798;2024-03-25T03:00:48;100606.75;;;27.02;35.12
63399;BME280;49533;-34.520;150.798;2024-03-25T03:03:15;100608.75;;;27.01;35.38
63399;BME280;49533;-34.520;150.798;2024-03-25T03:05:42;100589.88;;;26.82;35.52
63399;BME280;49533;-34.520;150.798;2024-03-25T03:08:09;100555.06;;;26.63;36.28
63399;BME280;49533;-34.520;150.798;2024-03-25T03:10:37;100570.47;;;26.75;35.96
63399;BME280;49533;-34.520;150.798;2024-03-25T03:13:04;100596.50;;;26.92;36.17
63399;BME280;49533;-34.520;150.798;2024-03-25T03:15:31;100591.06;;;26.81;36.14
63399;BME280;49533;-34.520;150.798;2024-03-25T03:17:58;100610.38;;;26.99;36.61
63399;BME280;49533;-34.520;150.798;2024-03-25T03:20:26;100560.56;;;26.70;36.42
63399;BME280;49533;-34.520;150.798;2024-03-25T03:22:53;100566.78;;;26.81;36.80
63399;BME280;49533;-34.520;150.798;2024-03-25T03:25:20;100541.22;;;26.56;36.94
63399;BME280;49533;-34.520;150.798;2024-03-25T03:27:47;100595.97;;;27.04;37.58
63399;BME280;49533;-34.520;150.798;2024-03-25T03:30:14;100586.25;;;27.16;37.61
63399;BME280;49533;-34.520;150.798;2024-03-25T03:32:41;100542.72;;;26.95;37.44
63399;BME280;49533;-34.520;150.798;2024-03-25T03:35:08;100545.75;;;27.07;36.81
63399;BME280;49533;-34.520;150.798;2024-03-25T03:37:36;100556.00;;;27.14;36.84
63399;BME280;49533;-34.520;150.798;2024-03-25T03:40:03;100531.47;;;27.02;35.61
63399;BME280;49533;-34.520;150.798;2024-03-25T03:42:33;100484.16;;;26.67;35.50
63399;BME280;49533;-34.520;150.798;2024-03-25T03:45:00;100573.75;;;27.27;36.04
63399;BME280;49533;-34.520;150.798;2024-03-25T03:47:27;100582.00;;;27.38;35.10
63399;BME280;49533;-34.520;150.798;2024-03-25T03:49:55;100524.31;;;27.01;35.28
63399;BME280;49533;-34.520;150.798;2024-03-25T03:52:23;100593.88;;;27.42;35.07
63399;BME280;49533;-34.520;150.798;2024-03-25T03:54:50;100591.88;;;27.43;35.08
63399;BME280;49533;-34.520;150.798;2024-03-25T03:57:17;100584.25;;;27.47;35.49
63399;BME280;49533;-34.520;150.798;2024-03-25T03:59:44;100527.72;;;27.12;35.26
63399;BME280;49533;-34.520;150.798;2024-03-25T04:02:11;100582.13;;;27.54;34.54
63399;BME280;49533;-34.520;150.798;2024-03-25T04:04:39;100587.97;;;27.64;35.23
63399;BME280;49533;-34.520;150.798;2024-03-25T04:07:06;100591.06;;;27.69;35.47
63399;BME280;49533;-34.520;150.798;2024-03-25T04:09:33;100559.41;;;27.56;35.58
63399;BME280;49533;-34.520;150.798;2024-03-25T04:12:01;100587.72;;;27.82;35.86
63399;BME280;49533;-34.520;150.798;2024-03-25T04:14:28;100599.97;;;27.88;36.09
63399;BME280;49533;-34.520;150.798;2024-03-25T04:16:55;100592.34;;;27.92;36.08
63399;BME280;49533;-34.520;150.798;2024-03-25T04:19:26;100559.03;;;27.78;36.55
63399;BME280;49533;-34.520;150.798;2024-03-25T04:21:56;100592.19;;;27.99;36.23
63399;BME280;49533;-34.520;150.798;2024-03-25T04:24:23;100581.75;;;28.03;36.02
63399;BME280;49533;-34.520;150.798;2024-03-25T04:26:51;100577.41;;;28.02;36.09
63399;BME280;49533;-34.520;150.798;2024-03-25T04:29:18;100442.44;;;27.15;36.04
63399;BME280;49533;-34.520;150.798;2024-03-25T04:31:45;100453.03;;;27.27;36.62
63399;BME280;49533;-34.520;150.798;2024-03-25T04:34:13;100587.16;;;28.14;36.30
63399;BME280;49533;-34.520;150.798;2024-03-25T04:36:40;100593.09;;;28.16;36.58
63399;BME280;49533;-34.520;150.798;2024-03-25T04:39:07;100595.03;;;28.19;35.85
63399;BME280;49533;-34.520;150.798;2024-03-25T04:41:34;100589.53;;;28.15;36.03
63399;BME280;49533;-34.520;150.798;2024-03-25T04:44:01;100601.38;;;28.23;35.83
63399;BME280;49533;-34.520;150.798;2024-03-25T04:46:28;100573.63;;;28.12;35.78
63399;BME280;49533;-34.520;150.798;2024-03-25T04:48:55;100605.31;;;28.26;36.17
63399;BME280;49533;-34.520;150.798;2024-03-25T04:51:23;100538.13;;;27.89;35.95
63399;BME280;49533;-34.520;150.798;2024-03-25T04:53:50;100594.91;;;28.26;35.40
63399;BME280;49533;-34.520;150.798;2024-03-25T04:56:17;100527.44;;;27.84;35.92
63399;BME280;49533;-34.520;150.798;2024-03-25T04:58:44;100523.50;;;27.82;35.91
63399;BME280;49533;-34.520;150.798;2024-03-25T05:01:11;100606.84;;;28.30;35.82
63399;BME280;49533;-34.520;150.798;2024-03-25T05:03:40;100589.81;;;28.21;35.37
63399;BME280;49533;-34.520;150.798;2024-03-25T05:06:07;100463.97;;;27.41;35.71
63399;BME280;49533;-34.520;150.798;2024-03-25T05:08:38;100594.63;;;28.21;35.17
63399;BME280;49533;-34.520;150.798;2024-03-25T05:11:08;100516.78;;;27.75;35.58
63399;BME280;49533;-34.520;150.798;2024-03-25T05:13:35;100586.63;;;28.23;35.68
63399;BME280;49533;-34.520;150.798;2024-03-25T05:16:02;100606.75;;;28.34;35.50
63399;BME280;49533;-34.520;150.798;2024-03-25T05:18:30;100602.72;;;28.35;34.82
63399;BME280;49533;-34.520;150.798;2024-03-25T05:21:00;100596.44;;;28.31;34.39
63399;BME280;49533;-34.520;150.798;2024-03-25T05:23:27;100580.53;;;28.28;35.08
63399;BME280;49533;-34.520;150.798;2024-03-25T05:25:54;100605.53;;;28.35;35.01
63399;BME280;49533;-34.520;150.798;2024-03-25T05:28:21;100602.72;;;28.35;35.36
63399;BME280;49533;-34.520;150.798;2024-03-25T05:30:48;100545.88;;;28.02;35.42
63399;BME280;49533;-34.520;150.798;2024-03-25T05:33:16;100592.03;;;28.30;34.94
63399;BME280;49533;-34.520;150.798;2024-03-25T05:35:43;100575.19;;;28.13;35.57
63399;BME280;49533;-34.520;150.798;2024-03-25T05:38:10;100591.84;;;28.21;35.77
63399;BME280;49533;-34.520;150.798;2024-03-25T05:40:37;100594.06;;;28.29;35.65
63399;BME280;49533;-34.520;150.798;2024-03-25T05:43:04;100535.38;;;27.86;35.27
63399;BME280;49533;-34.520;150.798;2024-03-25T05:45:31;100594.63;;;28.21;35.59
63399;BME280;49533;-34.520;150.798;2024-03-25T05:47:58;100614.28;;;28.37;35.89
63399;BME280;49533;-34.520;150.798;2024-03-25T05:50:25;100617.84;;;28.37;35.96
63399;BME280;49533;-34.520;150.798;2024-03-25T05:52:53;100611.47;;;28.37;35.38
63399;BME280;49533;-34.520;150.798;2024-03-25T05:55:20;100618.66;;;28.38;35.63
63399;BME280;49533;-34.520;150.798;2024-03-25T05:57:47;100606.16;;;28.23;36.11
63399;BME280;49533;-34.520;150.798;2024-03-25T06:00:14;100617.84;;;28.37;36.36
63399;BME280;49533;-34.520;150.798;2024-03-25T06:02:41;100627.84;;;28.38;36.64
63399;BME280;49533;-34.520;150.798;2024-03-25T06:05:08;100615.06;;;28.37;36.83
63399;BME280;49533;-34.520;150.798;2024-03-25T06:07:35;100604.44;;;28.29;36.85
63399;BME280;49533;-34.520;150.798;2024-03-25T06:10:03;100585.97;;;28.15;37.06
63399;BME280;49533;-34.520;150.798;2024-03-25T06:12:30;100573.38;;;28.03;37.20
63399;BME280;49533;-34.520;150.798;2024-03-25T06:14:57;100562.69;;;27.98;37.50
63399;BME280;49533;-34.520;150.798;2024-03-25T06:17:24;100587.16;;;28.14;37.37
63399;BME280;49533;-34.520;150.798;2024-03-25T06:19:52;100634.56;;;28.41;37.68
63399;BME280;49533;-34.520;150.798;2024-03-25T06:22:19;100550.88;;;27.90;37.84
63399;BME280;49533;-34.520;150.798;2024-03-25T06:24:46;100600.63;;;28.19;37.90
63399;BME280;49533;-34.520;150.798;2024-03-25T06:27:16;100632.19;;;28.39;37.97
63399;BME280;49533;-34.520;150.798;2024-03-25T06:29:44;100641.34;;;28.40;38.31
63399;BME280;49533;-34.520;150.798;2024-03-25T06:32:12;100635.44;;;28.38;38.42
63399;BME280;49533;-34.520;150.798;2024-03-25T06:34:58;100642.59;;;28.39;38.53
63399;BME280;49533;-34.520;150.798;2024-03-25T06:37:27;100645.78;;;28.37;38.56
63399;BME280;49533;-34.520;150.798;2024-03-25T06:39:55;100582.50;;;28.07;38.83
63399;BME280;49533;-34.520;150.798;2024-03-25T06:42:22;100627.72;;;28.22;38.69
63399;BME280;49533;-34.520;150.798;2024-03-25T06:44:49;100639.69;;;28.23;39.41
63399;BME280;49533;-34.520;150.798;2024-03-25T06:47:16;100647.56;;;28.04;40.07
63399;BME280;49533;-34.520;150.798;2024-03-25T06:49:44;100603.66;;;27.81;40.68
63399;BME280;49533;-34.520;150.798;2024-03-25T06:52:11;100527.94;;;27.28;40.55
63399;BME280;49533;-34.520;150.798;2024-03-25T06:54:38;100580.97;;;27.52;38.98
63399;BME280;49533;-34.520;150.798;2024-03-25T06:57:05;100639.53;;;27.83;38.79
63399;BME280;49533;-34.520;150.798;2024-03-25T06:59:32;100651.47;;;27.87;38.41
63399;BME280;49533;-34.520;150.798;2024-03-25T07:02:02;100655.50;;;27.79;38.14
63399;BME280;49533;-34.520;150.798;2024-03-25T07:04:29;100589.59;;;27.34;37.97
63399;BME280;49533;-34.520;150.798;2024-03-25T07:06:57;100638.00;;;27.51;39.00
63399;BME280;49533;-34.520;150.798;2024-03-25T07:09:24;100593.41;;;27.17;39.63
63399;BME280;49533;-34.520;150.798;2024-03-25T07:11:51;100636.97;;;27.38;40.71
63399;BME280;49533;-34.520;150.798;2024-03-25T07:14:18;100645.34;;;27.38;41.13
63399;BME280;49533;-34.520;150.798;2024-03-25T07:16:45;100652.16;;;27.37;41.46
63399;BME280;49533;-34.520;150.798;2024-03-25T07:19:13;100645.81;;;27.32;42.45
63399;BME280;49533;-34.520;150.798;2024-03-25T07:21:40;100671.69;;;27.37;42.98
63399;BME280;49533;-34.520;150.798;2024-03-25T07:24:07;100673.69;;;27.36;44.43
63399;BME280;49533;-34.520;150.798;2024-03-25T07:26:34;100658.34;;;27.21;45.81
63399;BME280;49533;-34.520;150.798;2024-03-25T07:29:01;100667.41;;;27.28;45.63
63399;BME280;49533;-34.520;150.798;2024-03-25T07:31:29;100640.63;;;27.00;45.54
63399;BME280;49533;-34.520;150.798;2024-03-25T07:33:56;100681.50;;;27.18;45.73
63399;BME280;49533;-34.520;150.798;2024-03-25T07:36:23;100656.34;;;26.87;45.81
63399;BME280;49533;-34.520;150.798;2024-03-25T07:38:50;100688.22;;;27.17;46.28
63399;BME280;49533;-34.520;150.798;2024-03-25T07:41:17;100666.97;;;26.96;46.82
63399;BME280;49533;-34.520;150.798;2024-03-25T07:43:44;100620.38;;;26.58;46.41
63399;BME280;49533;-34.520;150.798;2024-03-25T07:46:11;100541.31;;;26.07;47.37
63399;BME280;49533;-34.520;150.798;2024-03-25T07:48:39;100669.44;;;26.86;47.67
63399;BME280;49533;-34.520;150.798;2024-03-25T07:51:06;100690.13;;;26.93;47.37
63399;BME280;49533;-34.520;150.798;2024-03-25T07:53:33;100689.34;;;26.88;47.84
63399;BME280;49533;-34.520;150.798;2024-03-25T07:56:00;100697.72;;;26.88;48.24
63399;BME280;49533;-34.520;150.798;2024-03-25T07:58:27;100699.72;;;26.88;48.31
63399;BME280;49533;-34.520;150.798;2024-03-25T08:00:54;100687.53;;;26.75;48.74
63399;BME280;49533;-34.520;150.798;2024-03-25T08:03:22;100674.94;;;26.56;49.42
63399;BME280;49533;-34.520;150.798;2024-03-25T08:05:51;100665.44;;;26.50;49.45
63399;BME280;49533;-34.520;150.798;2024-03-25T08:08:18;100678.19;;;26.47;49.78
63399;BME280;49533;-34.520;150.798;2024-03-25T08:10:45;100701.56;;;26.64;50.80
63399;BME280;49533;-34.520;150.798;2024-03-25T08:13:13;100692.19;;;26.43;50.33
63399;BME280;49533;-34.520;150.798;2024-03-25T08:15:41;100720.75;;;26.51;50.61
63399;BME280;49533;-34.520;150.798;2024-03-25T08:18:08;100715.59;;;26.50;51.57
63399;BME280;49533;-34.520;150.798;2024-03-25T08:20:36;100704.22;;;26.30;50.70
63399;BME280;49533;-34.520;150.798;2024-03-25T08:23:03;100703.03;;;26.27;51.04
63399;BME280;49533;-34.520;150.798;2024-03-25T08:25:30;100676.56;;;26.08;50.58
63399;BME280;49533;-34.520;150.798;2024-03-25T08:27:58;100668.22;;;26.05;50.83
63399;BME280;49533;-34.520;150.798;2024-03-25T08:30:25;100713.44;;;26.19;51.14
63399;BME280;49533;-34.520;150.798;2024-03-25T08:32:52;100722.91;;;26.29;50.62
63399;BME280;49533;-34.520;150.798;2024-03-25T08:35:19;100725.72;;;26.29;50.70
63399;BME280;49533;-34.520;150.798;2024-03-25T08:37:47;100730.56;;;26.18;50.92
63399;BME280;49533;-34.520;150.798;2024-03-25T08:40:14;100752.78;;;26.29;51.01
63399;BME280;49533;-34.520;150.798;2024-03-25T08:42:41;100687.81;;;25.83;50.88
63399;BME280;49533;-34.520;150.798;2024-03-25T08:45:08;100742.50;;;26.15;51.15
63399;BME280;49533;-34.520;150.798;2024-03-25T08:47:35;100750.13;;;26.11;51.40
63399;BME280;49533;-34.520;150.798;2024-03-25T08:50:04;100753.69;;;26.08;50.77
63399;BME280;49533;-34.520;150.798;2024-03-25T08:52:31;100750.13;;;26.11;51.19
63399;BME280;49533;-34.520;150.798;2024-03-25T08:54:59;100749.63;;;26.23;50.09
63399;BME280;49533;-34.520;150.798;2024-03-25T08:57:26;100714.75;;;26.04;49.79
63399;BME280;49533;-34.520;150.798;2024-03-25T08:59:53;100761.38;;;26.45;49.31
63399;BME280;49533;-34.520;150.798;2024-03-25T09:02:20;100763.75;;;26.54;49.08
63399;BME280;49533;-34.520;150.798;2024-03-25T09:04:48;100728.50;;;26.29;48.77
63399;BME280;49533;-34.520;150.798;2024-03-25T09:07:15;100732.06;;;26.30;48.88
63399;BME280;49533;-34.520;150.798;2024-03-25T09:09:42;100779.59;;;26.64;48.59
63399;BME280;49533;-34.520;150.798;2024-03-25T09:12:38;100781.56;;;26.67;48.36
63399;BME280;49533;-34.520;150.798;2024-03-25T09:15:06;100786.75;;;26.65;48.05
63399;BME280;49533;-34.520;150.798;2024-03-25T09:17:33;100788.31;;;26.66;48.02
63399;BME280;49533;-34.520;150.798;2024-03-25T09:20:00;100765.72;;;26.57;48.04
63399;BME280;49533;-34.520;150.798;2024-03-25T09:22:27;100760.16;;;26.50;47.77
63399;BME280;49533;-34.520;150.798;2024-03-25T09:24:54;100786.75;;;26.65;47.10
63399;BME280;49533;-34.520;150.798;2024-03-25T09:27:21;100791.53;;;26.64;46.51
63399;BME280;49533;-34.520;150.798;2024-03-25T09:29:48;100804.28;;;26.62;46.44
63399;BME280;49533;-34.520;150.798;2024-03-25T09:32:15;100803.06;;;26.63;46.35
63399;BME280;49533;-34.520;150.798;2024-03-25T09:34:43;100759.53;;;26.28;46.06
63399;BME280;49533;-34.520;150.798;2024-03-25T09:37:13;100804.34;;;26.55;45.62
63399;BME280;49533;-34.520;150.798;2024-03-25T09:39:40;100803.16;;;26.52;45.32
63399;BME280;49533;-34.520;150.798;2024-03-25T09:42:08;100746.56;;;26.07;45.35
63399;BME280;49533;-34.520;150.798;2024-03-25T09:44:40;100812.31;;;26.45;45.27
63399;BME280;49533;-34.520;150.798;2024-03-25T09:47:07;100813.53;;;26.44;45.29
63399;BME280;49533;-34.520;150.798;2024-03-25T09:49:36;100821.09;;;26.44;45.35
63399;BME280;49533;-34.520;150.798;2024-03-25T09:52:03;100779.94;;;26.14;44.99
63399;BME280;49533;-34.520;150.798;2024-03-25T09:54:31;100665.00;;;25.43;44.79
63399;BME280;49533;-34.520;150.798;2024-03-25T09:56:59;100776.00;;;26.04;44.93
63399;BME280;49533;-34.520;150.798;2024-03-25T09:59:27;100786.72;;;26.09;44.48
63399;BME280;49533;-34.520;150.798;2024-03-25T10:01:55;100829.13;;;26.35;44.35
63399;BME280;49533;-34.520;150.798;2024-03-25T10:04:22;100833.13;;;26.34;44.27
63399;BME280;49533;-34.520;150.798;2024-03-25T10:06:49;100834.72;;;26.31;44.44
63399;BME280;49533;-34.520;150.798;2024-03-25T10:09:23;100838.34;;;26.28;44.44
63399;BME280;49533;-34.520;150.798;2024-03-25T10:11:52;100841.13;;;26.28;44.39
63399;BME280;49533;-34.520;150.798;2024-03-25T10:14:19;100798.72;;;25.95;44.24
63399;BME280;49533;-34.520;150.798;2024-03-25T10:16:48;100839.13;;;26.25;43.92
63399;BME280;49533;-34.520;150.798;2024-03-25T10:19:15;100851.47;;;26.24;43.89
63399;BME280;49533;-34.520;150.798;2024-03-25T10:21:42;100852.69;;;26.23;43.56
63399;BME280;49533;-34.520;150.798;2024-03-25T10:24:09;100856.66;;;26.22;44.27
63399;BME280;49533;-34.520;150.798;2024-03-25T10:26:37;100856.25;;;26.20;43.84
63399;BME280;49533;-34.520;150.798;2024-03-25T10:29:05;100859.88;;;26.17;43.45
63399;BME280;49533;-34.520;150.798;2024-03-25T10:31:37;100762.31;;;25.54;43.75
63399;BME280;49533;-34.520;150.798;2024-03-25T10:34:04;100709.19;;;25.20;44.11
63399;BME280;49533;-34.520;150.798;2024-03-25T10:36:31;100849.59;;;25.99;43.88
63399;BME280;49533;-34.520;150.798;2024-03-25T10:39:02;100858.75;;;26.03;44.33
63399;BME280;49533;-34.520;150.798;2024-03-25T10:41:30;100856.34;;;26.02;44.22
63399;BME280;49533;-34.520;150.798;2024-03-25T10:44:03;100871.44;;;26.08;44.24
63399;BME280;49533;-34.520;150.798;2024-03-25T10:46:35;100875.84;;;26.06;44.61
63399;BME280;49533;-34.520;150.798;2024-03-25T10:51:41;100829.41;;;25.77;45.04
63399;BME280;49533;-34.520;150.798;2024-03-25T10:54:12;100876.25;;;26.00;45.27
63399;BME280;49533;-34.520;150.798;2024-03-25T10:56:39;100782.25;;;25.42;45.34
63399;BME280;49533;-34.520;150.798;2024-03-25T10:59:07;100692.22;;;24.78;44.83
63399;BME280;49533;-34.520;150.798;2024-03-25T11:01:36;100846.09;;;25.74;44.71
63399;BME280;49533;-34.520;150.798;2024-03-25T11:04:04;100840.94;;;25.69;45.33
63399;BME280;49533;-34.520;150.798;2024-03-25T11:06:34;100880.25;;;25.92;44.84
63399;BME280;49533;-34.520;150.798;2024-03-25T11:09:01;100888.59;;;25.92;44.93
63399;BME280;49533;-34.520;150.798;2024-03-25T11:11:34;100893.81;;;25.90;44.88
63399;BME280;49533;-34.520;150.798;2024-03-25T11:14:04;100846.94;;;25.64;45.11
63399;BME280;49533;-34.520;150.798;2024-03-25T11:16:31;100860.84;;;25.67;45.46
63399;BME280;49533;-34.520;150.798;2024-03-25T11:19:05;100873.53;;;25.75;45.65
63399;BME280;49533;-34.520;150.798;2024-03-25T11:21:33;100889.78;;;25.84;45.33
63399;BME280;49533;-34.520;150.798;2024-03-25T11:24:09;100871.56;;;25.72;45.30
63399;BME280;49533;-34.520;150.798;2024-03-25T11:26:41;100886.63;;;25.82;45.12
63399;BME280;49533;-34.520;150.798;2024-03-25T11:29:09;100887.81;;;25.81;45.44
63399;BME280;49533;-34.520;150.798;2024-03-25T11:31:39;100836.25;;;25.41;45.37
63399;BME280;49533;-34.520;150.798;2024-03-25T11:34:07;100837.06;;;25.41;46.00
63399;BME280;49533;-34.520;150.798;2024-03-25T11:36:35;100881.88;;;25.72;46.02
63399;BME280;49533;-34.520;150.798;2024-03-25T11:39:03;100875.19;;;25.55;45.88
63399;BME280;49533;-34.520;150.798;2024-03-25T11:41:42;100851.78;;;25.42;45.92
63399;BME280;49533;-34.520;150.798;2024-03-25T11:44:10;100889.84;;;25.66;45.83
63399;BME280;49533;-34.520;150.798;2024-03-25T11:46:39;100891.88;;;25.62;46.18
63399;BME280;49533;-34.520;150.798;2024-03-25T11:49:07;100893.84;;;25.62;46.00
63399;BME280;49533;-34.520;150.798;2024-03-25T11:51:36;100900.22;;;25.58;45.98
63399;BME280;49533;-34.520;150.798;2024-03-25T11:54:09;100894.25;;;25.56;46.11
63399;BME280;49533;-34.520;150.798;2024-03-25T11:56:37;100899.81;;;25.56;46.36
63399;BME280;49533;-34.520;150.798;2024-03-25T11:59:04;100899.44;;;25.54;46.31
63399;BME280;49533;-34.520;150.798;2024-03-25T12:01:32;100845.06;;;25.17;46.66
63399;BME280;49533;-34.520;150.798;2024-03-25T12:04:15;100883.56;;;25.33;46.29
63399;BME280;49533;-34.520;150.798;2024-03-25T12:06:43;100883.97;;;25.25;46.49
63399;BME280;49533;-34.520;150.798;2024-03-25T12:09:13;100830.34;;;24.99;46.59
63399;BME280;49533;-34.520;150.798;2024-03-25T12:11:59;100847.81;;;25.10;46.45
63399;BME280;49533;-34.520;150.798;2024-03-25T12:14:26;100886.75;;;25.32;46.49
63399;BME280;49533;-34.520;150.798;2024-03-25T12:16:56;100888.72;;;25.28;45.79
63399;BME280;49533;-34.520;150.798;2024-03-25T12:19:26;100874.03;;;25.20;45.71
63399;BME280;49533;-34.520;150.798;2024-03-25T12:22:02;100745.78;;;24.36;46.20
63399;BME280;49533;-34.520;150.798;2024-03-25T12:24:31;100844.63;;;24.98;45.93
63399;BME280;49533;-34.520;150.798;2024-03-25T12:26:59;100819.63;;;24.80;45.80